sensor_id;sensor_type;location;lat;lon;timestamp;pressure;altitude;pressure_sealevel;temperature;humidity
31011;BME280;26395;53.412;19.598;2023-12-04T13:17:46;100769.80;;;2.10;76.89
31011;BME280;26395;53.412;19.598;2023-12-04T13:33:29;100757.23;;;2.24;76.41
31011;BME280;26395;53.412;19.598;2023-12-04T13:49:06;100758.52;;;2.19;76.47
31011;BME280;26395;53.412;19.598;2023-12-04T14:04:44;100757.11;;;2.16;75.78
31011;BME280;26395;53.412;19.598;2023-12-04T14:20:22;100768.05;;;2.03;76.18
31011;BME280;26395;53.412;19.598;2023-12-04T14:35:59;100779.15;;;1.69;75.83
31011;BME280;26395;53.412;19.598;2023-12-04T14:51:36;100790.89;;;1.53;75.87
31011;BME280;26395;53.412;19.598;2023-12-04T15:07:18;100801.41;;;1.44;76.54
31011;BME280;26395;53.412;19.598;2023-12-04T15:23:14;100796.08;;;1.57;76.42
31011;BME280;26395;53.412;19.598;2023-12-04T15:38:52;100790.96;;;1.26;76.57
31011;BME280;26395;53.412;19.598;2023-12-04T15:54:29;100790.45;;;1.17;76.61
31011;BME280;26395;53.412;19.598;2023-12-04T16:10:06;100798.70;;;0.92;76.74
31011;BME280;26395;53.412;19.598;2023-12-04T16:25:44;100798.77;;;0.90;77.71
31011;BME280;26395;53.412;19.598;2023-12-04T16:41:22;100811.34;;;1.03;77.20
31011;BME280;26395;53.412;19.598;2023-12-04T16:56:59;100814.84;;;1.07;77.48
31011;BME280;26395;53.412;19.598;2023-12-04T17:12:37;100811.34;;;1.08;77.07
31011;BME280;26395;53.412;19.598;2023-12-04T17:28:14;100807.64;;;0.88;77.17
31011;BME280;26395;53.412;19.598;2023-12-04T17:43:52;100801.56;;;0.76;77.52
31011;BME280;26395;53.412;19.598;2023-12-04T17:59:29;100804.58;;;0.51;78.12
31011;BME280;26395;53.412;19.598;2023-12-04T18:15:09;100804.35;;;0.38;77.80
31011;BME280;26395;53.412;19.598;2023-12-04T18:30:46;100814.83;;;0.29;78.30
31011;BME280;26395;53.412;19.598;2023-12-04T18:46:27;100822.63;;;0.23;78.76
31011;BME280;26395;53.412;19.598;2023-12-04T19:02:06;100817.77;;;0.15;78.73
31011;BME280;26395;53.412;19.598;2023-12-04T19:17:42;100808.69;;;-0.11;79.77
31011;BME280;26395;53.412;19.598;2023-12-04T19:33:39;100796.10;;;-0.10;79.80
31011;BME280;26395;53.412;19.598;2023-12-04T19:49:16;100790.40;;;-0.19;81.25
31011;BME280;26395;53.412;19.598;2023-12-04T20:04:53;100788.00;;;-0.04;79.94
31011;BME280;26395;53.412;19.598;2023-12-04T20:20:30;100783.79;;;-0.31;79.06
31011;BME280;26395;53.412;19.598;2023-12-04T20:36:13;100771.81;;;-0.84;78.49
31011;BME280;26395;53.412;19.598;2023-12-04T20:51:50;100763.36;;;-1.49;77.56
31011;BME280;26395;53.412;19.598;2023-12-04T21:07:28;100769.04;;;-1.79;76.97
31011;BME280;26395;53.412;19.598;2023-12-04T21:23:05;100772.11;;;-1.90;77.15
31011;BME280;26395;53.412;19.598;2023-12-04T21:38:42;100766.88;;;-1.99;77.75
31011;BME280;26395;53.412;19.598;2023-12-04T21:54:19;100759.65;;;-2.05;77.50
31011;BME280;26395;53.412;19.598;2023-12-04T22:09:56;100752.32;;;-2.00;77.55
31011;BME280;26395;53.412;19.598;2023-12-04T22:25:34;100746.25;;;-1.91;77.60
31011;BME280;26395;53.412;19.598;2023-12-04T22:41:11;100739.11;;;-1.94;77.15
31011;BME280;26395;53.412;19.598;2023-12-04T22:56:48;100747.60;;;-2.09;77.26
31011;BME280;26395;53.412;19.598;2023-12-04T23:12:25;100743.81;;;-2.27;77.11
31011;BME280;26395;53.412;19.598;2023-12-04T23:28:02;100733.41;;;-2.10;77.93
31011;BME280;26395;53.412;19.598;2023-12-04T23:43:39;100717.87;;;-2.00;77.92
31011;BME280;26395;53.412;19.598;2023-12-04T23:59:16;100710.33;;;-1.94;77.50
